Terminal Aerodrome Forecast
Issued by NWS

Home | Current Version | Previous Version | Text Only | Print | Product List | Glossary On
Versions: 1 2 3 4 5 6 7 8 9 10 11 12 13 14 15 16 17 18 19 20 21 22 23 24 25 26 27 28 29 30 31 32 33
000
FTUS46 KMTR 232043 AAA
TAFSFO
TAF AMD
KSFO 232043Z 2321/2424 27014KT P6SM SCT030 SCT120 BKN150
     FM240300 17007KT P6SM FEW020 BKN050 OVC100
     FM240700 16008KT P6SM -SHRA OVC050
     FM241000 16012KT P6SM -SHRA SCT030 OVC050
     FM241500 16019G25KT P6SM -RA BKN025 OVC040
     FM241800 19020G28KT P6SM -RA OVC025=

USA.gov is the U.S. government's official web portal to all federal, state and local government web resources and services.